CMP2004 KMCO-KLAL
Flight info
| Callsign | CMP2004 |
|---|---|
| Flight time | 0h 22m |
| Altitude | 10000 |
| Route | OSPRY1 OSPRY |
| Aircraft | B38M/M-SDE1FGHILORVWXY/HB1 |
Departure
| Time | 2026-04-20 20:03 |
|---|---|
| Airport | Orlando International Airport (KMCO) |
Arrival
| Time | 2026-04-20 20:25 |
|---|---|
| Airport | Lakeland Linder International Airport (KLAL) |
| Time | Latitude | Longitude | Altitude | Speed | Heading |
|---|---|---|---|---|---|
| 2026-04-20 19:40 | 28.41228 | -81.31707 | 97 ft | 0 kts | 180° |
| 2026-04-20 19:54 | 28.41234 | -81.31707 | 97 ft | 2 kts | 179° |
| 2026-04-20 19:54 | 28.41250 | -81.31707 | 97 ft | 2 kts | 180° |
| 2026-04-20 19:55 | 28.41267 | -81.31707 | 97 ft | 2 kts | 182° |
| 2026-04-20 19:55 | 28.41283 | -81.31706 | 96 ft | 2 kts | 183° |
| 2026-04-20 19:55 | 28.41300 | -81.31704 | 96 ft | 2 kts | 187° |
| 2026-04-20 19:55 | 28.41316 | -81.31701 | 97 ft | 2 kts | 199° |
| 2026-04-20 19:56 | 28.41329 | -81.31690 | 95 ft | 2 kts | 252° |
| 2026-04-20 19:56 | 28.41331 | -81.31681 | 95 ft | 0 kts | 269° |
| 2026-04-20 19:59 | 28.41331 | -81.31682 | 95 ft | 0 kts | 269° |
| 2026-04-20 19:59 | 28.41330 | -81.31695 | 95 ft | 3 kts | 269° |
| 2026-04-20 19:59 | 28.41330 | -81.31730 | 99 ft | 6 kts | 271° |
| 2026-04-20 19:59 | 28.41330 | -81.31777 | 97 ft | 5 kts | 267° |
| 2026-04-20 20:00 | 28.41331 | -81.31815 | 100 ft | 4 kts | 269° |
| 2026-04-20 20:00 | 28.41330 | -81.31852 | 101 ft | 5 kts | 269° |
| 2026-04-20 20:00 | 28.41350 | -81.31901 | 101 ft | 11 kts | 333° |
| 2026-04-20 20:00 | 28.41462 | -81.31910 | 102 ft | 20 kts | 1° |
| 2026-04-20 20:01 | 28.41547 | -81.31970 | 100 ft | 13 kts | 263° |
| 2026-04-20 20:01 | 28.41544 | -81.32081 | 100 ft | 15 kts | 270° |
| 2026-04-20 20:01 | 28.41543 | -81.32210 | 100 ft | 17 kts | 268° |
| 2026-04-20 20:01 | 28.41540 | -81.32357 | 100 ft | 20 kts | 269° |
| 2026-04-20 20:02 | 28.41541 | -81.32517 | 101 ft | 21 kts | 270° |
| 2026-04-20 20:02 | 28.41551 | -81.32640 | 103 ft | 10 kts | 298° |
| 2026-04-20 20:02 | 28.41617 | -81.32665 | 103 ft | 11 kts | 2° |
| 2026-04-20 20:02 | 28.41713 | -81.32665 | 102 ft | 19 kts | 359° |
| 2026-04-20 20:03 | 28.41990 | -81.32668 | 101 ft | 71 kts | 359° |
| 2026-04-20 20:03 | 28.42702 | -81.32676 | 101 ft | 132 kts | 360° |
| 2026-04-20 20:03 | 28.43778 | -81.32712 | 252 ft | 170 kts | 359° |
| 2026-04-20 20:03 | 28.44993 | -81.32764 | 1007 ft | 175 kts | 3° |
| 2026-04-20 20:04 | 28.46186 | -81.32771 | 2000 ft | 170 kts | 4° |
| 2026-04-20 20:04 | 28.47417 | -81.32768 | 2693 ft | 184 kts | 3° |
| 2026-04-20 20:04 | 28.48762 | -81.32763 | 3249 ft | 202 kts | 3° |
| 2026-04-20 20:04 | 28.50233 | -81.32761 | 3829 ft | 220 kts | 2° |
| 2026-04-20 20:05 | 28.51823 | -81.32769 | 4470 ft | 233 kts | 1° |
| 2026-04-20 20:05 | 28.53435 | -81.32781 | 5451 ft | 231 kts | 360° |
| 2026-04-20 20:05 | 28.55031 | -81.33019 | 6292 ft | 236 kts | 340° |
| 2026-04-20 20:05 | 28.56547 | -81.33793 | 7013 ft | 242 kts | 338° |
| 2026-04-20 20:06 | 28.58110 | -81.34600 | 6993 ft | 254 kts | 330° |
| 2026-04-20 20:06 | 28.59333 | -81.36056 | 6951 ft | 262 kts | 300° |
| 2026-04-20 20:06 | 28.59760 | -81.38101 | 6965 ft | 273 kts | 273° |
| 2026-04-20 20:06 | 28.59702 | -81.40289 | 6972 ft | 278 kts | 273° |
| 2026-04-20 20:07 | 28.59683 | -81.42496 | 6984 ft | 278 kts | 273° |
| 2026-04-20 20:07 | 28.59665 | -81.44672 | 6990 ft | 278 kts | 273° |
| 2026-04-20 20:07 | 28.59644 | -81.46871 | 6991 ft | 278 kts | 273° |
| 2026-04-20 20:07 | 28.59443 | -81.49072 | 7249 ft | 287 kts | 253° |
| 2026-04-20 20:08 | 28.58431 | -81.51017 | 8276 ft | 287 kts | 232° |
| 2026-04-20 20:08 | 28.57136 | -81.52777 | 9082 ft | 293 kts | 234° |
| 2026-04-20 20:08 | 28.55831 | -81.54560 | 9865 ft | 296 kts | 233° |
| 2026-04-20 20:08 | 28.54503 | -81.56351 | 9966 ft | 296 kts | 233° |
| 2026-04-20 20:09 | 28.53169 | -81.58131 | 9981 ft | 295 kts | 233° |
| 2026-04-20 20:09 | 28.51837 | -81.59901 | 9982 ft | 294 kts | 232° |
| 2026-04-20 20:09 | 28.50500 | -81.61668 | 9980 ft | 294 kts | 232° |
| 2026-04-20 20:09 | 28.49166 | -81.63429 | 9983 ft | 294 kts | 232° |
| 2026-04-20 20:10 | 28.47831 | -81.65192 | 9982 ft | 294 kts | 232° |
| 2026-04-20 20:10 | 28.46496 | -81.66951 | 9985 ft | 294 kts | 232° |
| 2026-04-20 20:10 | 28.45156 | -81.68717 | 9977 ft | 295 kts | 232° |
| 2026-04-20 20:10 | 28.43816 | -81.70483 | 9977 ft | 295 kts | 232° |
| 2026-04-20 20:11 | 28.42477 | -81.72246 | 9973 ft | 295 kts | 232° |
| 2026-04-20 20:11 | 28.41153 | -81.73988 | 9974 ft | 295 kts | 232° |
| 2026-04-20 20:11 | 28.39797 | -81.75774 | 9973 ft | 294 kts | 232° |
| 2026-04-20 20:11 | 28.38580 | -81.77373 | 9974 ft | 295 kts | 232° |
| 2026-04-20 20:12 | 28.37261 | -81.79107 | 9976 ft | 295 kts | 232° |
| 2026-04-20 20:12 | 28.35918 | -81.80870 | 9974 ft | 295 kts | 232° |
| 2026-04-20 20:12 | 28.34574 | -81.82635 | 9972 ft | 295 kts | 232° |
| 2026-04-20 20:13 | 28.31894 | -81.86153 | 9922 ft | 292 kts | 232° |
| 2026-04-20 20:13 | 28.30570 | -81.87892 | 9619 ft | 290 kts | 231° |
| 2026-04-20 20:13 | 28.29232 | -81.89598 | 9261 ft | 290 kts | 227° |
| 2026-04-20 20:13 | 28.27788 | -81.91192 | 8833 ft | 291 kts | 227° |
| 2026-04-20 20:14 | 28.26340 | -81.92801 | 8457 ft | 290 kts | 227° |
| 2026-04-20 20:14 | 28.24906 | -81.94406 | 8101 ft | 288 kts | 227° |
| 2026-04-20 20:14 | 28.23483 | -81.96004 | 7761 ft | 287 kts | 227° |
| 2026-04-20 20:14 | 28.22070 | -81.97596 | 7401 ft | 287 kts | 227° |
| 2026-04-20 20:15 | 28.20658 | -81.99183 | 7044 ft | 286 kts | 227° |
| 2026-04-20 20:15 | 28.19279 | -82.00799 | 6688 ft | 283 kts | 233° |
| 2026-04-20 20:15 | 28.18217 | -82.02629 | 6326 ft | 280 kts | 243° |
| 2026-04-20 20:15 | 28.17257 | -82.04579 | 5961 ft | 279 kts | 244° |
| 2026-04-20 20:16 | 28.16500 | -82.06591 | 5602 ft | 276 kts | 254° |
| 2026-04-20 20:16 | 28.15979 | -82.08676 | 5268 ft | 275 kts | 258° |
| 2026-04-20 20:16 | 28.15511 | -82.10749 | 4960 ft | 273 kts | 258° |
| 2026-04-20 20:16 | 28.15051 | -82.12823 | 4674 ft | 270 kts | 259° |
| 2026-04-20 20:17 | 28.14600 | -82.14858 | 4570 ft | 261 kts | 258° |
| 2026-04-20 20:17 | 28.14157 | -82.16818 | 4538 ft | 253 kts | 258° |
| 2026-04-20 20:17 | 28.13735 | -82.18707 | 4462 ft | 243 kts | 258° |
| 2026-04-20 20:17 | 28.13331 | -82.20511 | 4438 ft | 234 kts | 259° |
| 2026-04-20 20:18 | 28.12920 | -82.22321 | 4365 ft | 238 kts | 258° |
| 2026-04-20 20:18 | 28.12505 | -82.24150 | 4238 ft | 241 kts | 257° |
| 2026-04-20 20:18 | 28.11724 | -82.25809 | 4028 ft | 241 kts | 222° |
| 2026-04-20 20:18 | 28.10254 | -82.26582 | 3912 ft | 232 kts | 180° |
| 2026-04-20 20:19 | 28.08777 | -82.26187 | 3861 ft | 213 kts | 145° |
| 2026-04-20 20:19 | 28.07657 | -82.25162 | 3827 ft | 205 kts | 133° |
| 2026-04-20 20:19 | 28.06368 | -82.24427 | 3780 ft | 214 kts | 170° |
| 2026-04-20 20:19 | 28.04897 | -82.24514 | 3828 ft | 211 kts | 178° |
| 2026-04-20 20:20 | 28.03438 | -82.24381 | 3653 ft | 210 kts | 167° |
| 2026-04-20 20:20 | 28.02053 | -82.24153 | 3479 ft | 199 kts | 166° |
| 2026-04-20 20:20 | 28.00685 | -82.23903 | 3318 ft | 193 kts | 158° |
| 2026-04-20 20:20 | 27.99668 | -82.23082 | 3150 ft | 176 kts | 116° |
| 2026-04-20 20:21 | 27.99244 | -82.21810 | 3075 ft | 174 kts | 98° |
| 2026-04-20 20:21 | 27.99051 | -82.20505 | 2922 ft | 163 kts | 91° |
| 2026-04-20 20:21 | 27.98961 | -82.19250 | 2759 ft | 157 kts | 88° |
| 2026-04-20 20:21 | 27.98924 | -82.18020 | 2584 ft | 156 kts | 85° |
| 2026-04-20 20:22 | 27.98914 | -82.17203 | 2471 ft | 158 kts | 85° |
| 2026-04-20 20:22 | 27.98910 | -82.15551 | 2218 ft | 151 kts | 85° |
| 2026-04-20 20:22 | 27.98908 | -82.14428 | 2058 ft | 138 kts | 84° |
| 2026-04-20 20:22 | 27.98912 | -82.13360 | 1902 ft | 134 kts | 84° |
| 2026-04-20 20:23 | 27.98911 | -82.12322 | 1724 ft | 133 kts | 83° |
| 2026-04-20 20:23 | 27.98916 | -82.11276 | 1544 ft | 133 kts | 84° |
| 2026-04-20 20:23 | 27.98916 | -82.10233 | 1365 ft | 131 kts | 82° |
| 2026-04-20 20:23 | 27.98919 | -82.09204 | 1194 ft | 132 kts | 84° |
| 2026-04-20 20:24 | 27.98920 | -82.08166 | 1025 ft | 131 kts | 82° |
| 2026-04-20 20:24 | 27.98925 | -82.07117 | 852 ft | 135 kts | 85° |
| 2026-04-20 20:24 | 27.98908 | -82.06093 | 642 ft | 135 kts | 88° |
| 2026-04-20 20:24 | 27.98908 | -82.05073 | 486 ft | 127 kts | 85° |
| 2026-04-20 20:25 | 27.98923 | -82.04040 | 326 ft | 132 kts | 84° |
| 2026-04-20 20:25 | 27.98927 | -82.02993 | 164 ft | 136 kts | 90° |
| 2026-04-20 20:25 | 27.98927 | -82.02050 | 150 ft | 94 kts | 90° |
| 2026-04-20 20:25 | 27.98927 | -82.01552 | 151 ft | 39 kts | 89° |
| 2026-04-20 20:26 | 27.98926 | -82.01317 | 152 ft | 27 kts | 91° |
| 2026-04-20 20:26 | 27.98927 | -82.01173 | 150 ft | 28 kts | 90° |
| 2026-04-20 20:26 | 27.98928 | -82.00907 | 151 ft | 15 kts | 89° |
| 2026-04-20 20:26 | 27.98930 | -82.00823 | 151 ft | 16 kts | 83° |
| 2026-04-20 20:27 | 27.99034 | -82.00782 | 151 ft | 10 kts | 300° |
| 2026-04-20 20:27 | 27.99043 | -82.00868 | 151 ft | 12 kts | 271° |
| 2026-04-20 20:27 | 27.99045 | -82.00938 | 151 ft | 14 kts | 270° |
| 2026-04-20 20:27 | 27.99042 | -82.01058 | 151 ft | 17 kts | 270° |
| 2026-04-20 20:28 | 27.99041 | -82.01197 | 151 ft | 19 kts | 270° |
| 2026-04-20 20:28 | 27.99040 | -82.01353 | 151 ft | 21 kts | 270° |
| 2026-04-20 20:28 | 27.99039 | -82.01438 | 151 ft | 7 kts | 272° |
| 2026-04-20 20:28 | 27.99039 | -82.01504 | 150 ft | 10 kts | 266° |
| 2026-04-20 20:29 | 27.99052 | -82.01540 | 150 ft | 0 kts | 342° |
| 2026-04-20 20:29 | 27.99060 | -82.01539 | 151 ft | 5 kts | 4° |
| 2026-04-20 20:29 | 27.99127 | -82.01532 | 151 ft | 12 kts | 5° |
| 2026-04-20 20:29 | 27.99219 | -82.01511 | 151 ft | 15 kts | 20° |
| 2026-04-20 20:30 | 27.99319 | -82.01482 | 151 ft | 11 kts | 21° |
| 2026-04-20 20:30 | 27.99377 | -82.01469 | 151 ft | 4 kts | 1° |
| 2026-04-20 20:30 | 27.99381 | -82.01468 | 151 ft | 0 kts | 1° |
| 2026-04-20 20:31 | 27.98918 | -82.09817 | 1290 ft | 131 kts | 82° |
| 2026-04-20 20:32 | 27.98930 | -82.03773 | 272 ft | 130 kts | 87° |